createdAt,value
2022-10-23T00:02:23.072Z,1.27
2022-10-23T00:07:25.303Z,1.50
2022-10-23T00:12:28.252Z,1.80
2022-10-23T00:17:32.630Z,1.40
2022-10-23T00:22:34.947Z,1.38
2022-10-23T00:27:37.186Z,1.30
2022-10-23T00:32:39.326Z,1.20
2022-10-23T00:37:41.755Z,1.60
2022-10-23T00:42:44.429Z,1.55
2022-10-23T00:47:46.850Z,1.60
2022-10-23T00:52:51.245Z,1.48
2022-10-23T00:57:53.456Z,1.88
2022-10-23T01:02:56.248Z,1.25
2022-10-23T01:08:03.061Z,1.52
2022-10-23T01:13:23.136Z,1.23
2022-10-23T01:18:37.233Z,1.38
2022-10-23T01:23:39.677Z,1.25
2022-10-23T01:28:45.424Z,1.60
2022-10-23T01:33:54.380Z,1.70
2022-10-23T01:39:09.644Z,1.30
2022-10-23T01:44:27.061Z,1.45
2022-10-23T01:49:30.176Z,1.40
2022-10-23T01:54:35.785Z,1.38
2022-10-23T01:59:40.324Z,1.83
2022-10-23T02:04:48.608Z,1.30
2022-10-23T02:09:50.757Z,1.17
2022-10-23T02:14:55.728Z,1.38
2022-10-23T02:20:07.331Z,1.00
2022-10-23T02:25:26.221Z,1.50
2022-10-23T02:30:29.909Z,1.20
2022-10-23T02:35:43.245Z,1.67
2022-10-23T02:40:57.047Z,1.13
2022-10-23T02:45:59.269Z,1.40
2022-10-23T02:51:01.423Z,1.20
2022-10-23T02:56:03.649Z,1.58
2022-10-23T03:01:11.194Z,1.38
2022-10-23T03:06:14.070Z,1.40
2022-10-23T03:11:16.105Z,1.40
2022-10-23T03:16:18.199Z,1.23
2022-10-23T03:21:26.726Z,1.38
2022-10-23T03:26:29.187Z,1.23
2022-10-23T03:31:31.399Z,1.20
2022-10-23T03:36:35.252Z,1.10
2022-10-23T03:41:37.889Z,1.50
2022-10-23T03:46:40.674Z,1.38
2022-10-23T03:51:43.959Z,1.50
2022-10-23T03:56:46.017Z,1.40
2022-10-23T04:01:48.328Z,1.50
2022-10-23T04:06:50.596Z,1.30
2022-10-23T04:11:56.143Z,1.40
2022-10-23T04:17:02.090Z,1.70
2022-10-23T04:22:04.262Z,1.52
2022-10-23T04:27:06.362Z,1.42
2022-10-23T04:32:08.776Z,1.30
2022-10-23T04:37:10.894Z,1.77
2022-10-23T04:42:13.745Z,1.60
2022-10-23T04:47:15.875Z,1.42
2022-10-23T04:52:30.719Z,1.27
2022-10-23T04:57:52.213Z,1.80
2022-10-23T05:02:58.429Z,1.60
2022-10-23T05:08:09.051Z,1.67
2022-10-23T05:13:23.845Z,1.60
2022-10-23T05:18:37.321Z,1.83
2022-10-23T05:23:41.688Z,1.63
2022-10-23T05:28:43.811Z,1.88
2022-10-23T05:33:49.581Z,1.50
2022-10-23T05:38:51.717Z,1.88
2022-10-23T05:43:55.919Z,1.45
2022-10-23T05:49:16.997Z,2.08
2022-10-23T05:54:37.784Z,1.88
2022-10-23T05:59:58.683Z,2.08
2022-10-23T06:05:16.025Z,1.92
2022-10-23T06:10:47.252Z,1.60
2022-10-23T06:15:50.186Z,1.98
2022-10-23T06:20:55.487Z,2.05
2022-10-23T06:26:00.926Z,1.63
2022-10-23T06:31:12.845Z,1.90
2022-10-23T06:36:14.917Z,1.75
2022-10-23T06:41:22.477Z,1.52
2022-10-23T06:46:32.871Z,1.80
2022-10-23T06:52:01.154Z,1.73
2022-10-23T06:57:03.734Z,2.00
2022-10-23T07:02:14.800Z,1.92
2022-10-23T07:07:17.332Z,1.98
2022-10-23T07:12:22.708Z,1.92
2022-10-23T07:17:31.068Z,2.00
2022-10-23T07:22:34.467Z,1.65
2022-10-23T07:27:47.012Z,1.63
2022-10-23T07:32:49.300Z,1.95
2022-10-23T07:38:10.291Z,1.88
2022-10-23T07:43:18.579Z,1.95
2022-10-23T07:48:21.730Z,2.10
2022-10-23T07:53:34.336Z,2.17
2022-10-23T07:58:44.849Z,1.90
2022-10-23T08:03:51.284Z,1.73
2022-10-23T08:08:53.591Z,1.83
2022-10-23T08:13:56.714Z,1.65
2022-10-23T08:19:01.713Z,1.55
2022-10-23T08:24:04.912Z,1.77
2022-10-23T08:29:07.123Z,1.58
2022-10-23T08:34:10.133Z,1.52
2022-10-23T08:39:12.661Z,1.40
2022-10-23T08:44:26.825Z,1.48
2022-10-23T08:49:39.538Z,1.23
2022-10-23T08:54:49.445Z,1.60
2022-10-23T09:00:12.889Z,1.50
2022-10-23T09:05:17.461Z,1.33
2022-10-23T09:10:33.114Z,1.42
2022-10-23T09:15:43.596Z,1.20
2022-10-23T09:20:46.637Z,1.70
2022-10-23T09:25:50.826Z,1.30
2022-10-23T09:30:52.967Z,1.30
2022-10-23T09:35:59.591Z,1.25
2022-10-23T09:41:11.708Z,1.20
2022-10-23T09:46:13.821Z,1.25
2022-10-23T09:51:18.124Z,1.20
2022-10-23T09:56:52.391Z,1.30
2022-10-23T10:01:58.775Z,1.23
2022-10-23T10:07:26.555Z,1.42
2022-10-23T10:12:50.257Z,1.20
2022-10-23T10:17:55.421Z,1.23
2022-10-23T10:23:03.566Z,0.85
2022-10-23T10:28:17.661Z,1.00
2022-10-23T10:33:38.409Z,1.25
2022-10-23T10:38:55.377Z,1.17
2022-10-23T10:44:13.460Z,1.30
2022-10-23T10:49:24.469Z,1.00
2022-10-23T10:54:52.076Z,1.10
2022-10-23T10:59:56.508Z,0.75
2022-10-23T11:05:10.868Z,1.00
2022-10-23T11:10:18.273Z,1.00
2022-10-23T11:15:23.357Z,1.10
2022-10-23T11:20:35.308Z,1.23
2022-10-23T11:25:55.409Z,0.90
2022-10-23T11:31:10.904Z,1.10
2022-10-23T11:36:18.572Z,1.10
2022-10-23T11:41:25.648Z,1.10
2022-10-23T11:46:35.178Z,1.10
2022-10-23T11:51:38.169Z,0.90
2022-10-23T11:56:55.324Z,1.00
2022-10-23T12:01:59.595Z,1.13
2022-10-23T12:07:04.669Z,1.10
2022-10-23T12:12:09.826Z,1.08
2022-10-23T12:17:23.925Z,1.00
2022-10-23T12:22:28.814Z,0.98
2022-10-23T12:27:38.405Z,1.10
2022-10-23T12:32:54.524Z,0.90
2022-10-23T12:38:12.494Z,0.73
2022-10-23T12:43:28.261Z,0.80
2022-10-23T12:48:30.342Z,1.00
2022-10-23T12:53:32.480Z,0.82
2022-10-23T12:58:35.651Z,1.00
2022-10-23T13:03:40.751Z,1.05
2022-10-23T13:08:44.221Z,1.02
2022-10-23T13:14:11.411Z,1.00
2022-10-23T13:19:23.754Z,0.80
2022-10-23T13:24:27.184Z,0.80
2022-10-23T13:29:31.403Z,0.90
2022-10-23T13:34:33.476Z,0.75
2022-10-23T13:39:36.438Z,0.80
2022-10-23T13:44:38.699Z,0.82
2022-10-23T13:49:40.723Z,1.08
2022-10-23T13:54:43.564Z,1.20
2022-10-23T13:59:45.752Z,1.15
2022-10-23T14:04:48.578Z,0.85
2022-10-23T14:09:50.821Z,1.25
2022-10-23T14:14:53.531Z,0.93
2022-10-23T14:19:55.586Z,1.20
2022-10-23T14:24:57.749Z,1.00
2022-10-23T14:29:59.791Z,0.93
2022-10-23T14:35:03.796Z,1.25
2022-10-23T14:40:06.237Z,1.08
2022-10-23T14:45:08.563Z,0.90
2022-10-23T14:50:11.427Z,1.10
2022-10-23T14:55:13.522Z,1.30
2022-10-23T15:00:15.679Z,1.17
2022-10-23T15:05:17.788Z,0.90
2022-10-23T15:10:19.911Z,0.65
2022-10-23T15:15:22.650Z,1.25
2022-10-23T15:20:24.672Z,1.00
2022-10-23T15:25:26.811Z,1.30
2022-10-23T15:30:28.884Z,0.98
2022-10-23T15:35:31.978Z,1.02
2022-10-23T15:40:34.092Z,0.90
2022-10-23T15:45:36.140Z,1.02
2022-10-23T15:50:38.267Z,1.05
2022-10-23T15:55:40.315Z,0.90
2022-10-23T16:00:42.422Z,0.93
2022-10-23T16:05:44.537Z,1.30
2022-10-23T16:10:46.588Z,1.70
2022-10-23T16:15:48.693Z,0.90
2022-10-23T16:20:50.913Z,0.77
2022-10-23T16:25:53.036Z,1.17
2022-10-23T16:30:55.149Z,0.93
2022-10-23T16:36:02.312Z,1.30
2022-10-23T16:41:07.076Z,1.80
2022-10-23T16:46:16.445Z,2.47
2022-10-23T16:51:19.855Z,1.13
2022-10-23T16:56:23.094Z,1.00
2022-10-23T17:01:27.076Z,1.20
2022-10-23T17:06:30.697Z,1.08
2022-10-23T17:11:34.145Z,1.20
2022-10-23T17:16:38.065Z,1.80
2022-10-23T17:21:41.002Z,1.65
2022-10-23T17:26:43.661Z,1.52
2022-10-23T17:31:47.050Z,1.52
2022-10-23T17:36:50.720Z,1.50
2022-10-23T17:41:52.881Z,1.67
2022-10-23T17:46:55.155Z,1.80
2022-10-23T17:51:58.128Z,1.30
2022-10-23T17:57:00.293Z,2.05
2022-10-23T18:02:02.626Z,1.95
2022-10-23T18:07:04.947Z,2.50
2022-10-23T18:12:07.224Z,1.98
2022-10-23T18:17:09.337Z,1.48
2022-10-23T18:22:11.506Z,2.17
2022-10-23T18:27:13.739Z,2.08
2022-10-23T18:32:15.897Z,1.85
2022-10-23T18:37:18.089Z,1.90
2022-10-23T18:42:20.185Z,1.63
2022-10-23T18:47:22.442Z,1.60
2022-10-23T18:52:24.486Z,1.30
2022-10-23T18:57:26.601Z,1.27
2022-10-23T19:02:28.915Z,1.40
2022-10-23T19:07:31.134Z,1.25
2022-10-23T19:12:33.207Z,1.52
2022-10-23T19:17:35.303Z,1.67
2022-10-23T19:22:40.173Z,5.90
2022-10-23T19:27:43.671Z,6.93
2022-10-23T19:32:46.330Z,4.70
2022-10-23T19:37:49.053Z,4.43
2022-10-23T19:42:51.226Z,3.13
2022-10-23T19:47:53.355Z,2.78
2022-10-23T19:52:55.519Z,2.38
2022-10-23T19:57:57.634Z,3.25
2022-10-23T20:02:59.706Z,1.95
2022-10-23T20:08:01.815Z,1.98
2022-10-23T20:13:18.856Z,2.60
2022-10-23T20:18:21.917Z,2.75
2022-10-23T20:23:24.136Z,2.30
2022-10-23T20:28:26.301Z,2.05
2022-10-23T20:33:28.487Z,1.70
2022-10-23T20:38:30.733Z,1.75
2022-10-23T20:43:33.893Z,1.80
2022-10-23T20:48:39.269Z,2.17
2022-10-23T20:53:42.017Z,1.83
2022-10-23T20:58:44.305Z,1.70
2022-10-23T21:03:50.960Z,1.90
2022-10-23T21:08:56.671Z,1.73
2022-10-23T21:14:00.157Z,1.80
2022-10-23T21:19:03.022Z,1.73
2022-10-23T21:24:07.327Z,1.55
2022-10-23T21:29:18.898Z,1.70
2022-10-23T21:34:22.133Z,1.50
2022-10-23T21:39:24.299Z,1.45
2022-10-23T21:44:26.373Z,1.70
2022-10-23T21:49:28.563Z,1.30
2022-10-23T21:54:30.641Z,1.55
2022-10-23T21:59:35.884Z,1.55
2022-10-23T22:04:38.873Z,1.35
2022-10-23T22:09:41.695Z,1.42
2022-10-23T22:14:43.860Z,1.30
2022-10-23T22:19:45.954Z,1.27
2022-10-23T22:24:48.083Z,1.10
2022-10-23T22:29:50.286Z,1.33
2022-10-23T22:34:53.483Z,1.27
2022-10-23T22:39:55.877Z,1.23
2022-10-23T22:44:57.941Z,1.35
2022-10-23T22:50:00.007Z,1.40
2022-10-23T22:55:02.241Z,1.00
2022-10-23T23:00:05.549Z,1.33
2022-10-23T23:05:10.647Z,1.30
2022-10-23T23:10:12.791Z,1.50
2022-10-23T23:15:15.019Z,1.20
2022-10-23T23:20:17.269Z,1.20
2022-10-23T23:25:19.304Z,1.33
2022-10-23T23:30:21.597Z,1.42
2022-10-23T23:35:23.652Z,1.40
2022-10-23T23:40:25.789Z,1.83
2022-10-23T23:45:27.932Z,1.40
2022-10-23T23:50:29.996Z,1.42
2022-10-23T23:55:32.182Z,1.40
